CheckWX is a tool to help pilots better visualize weather data.  It is not intended as a substitute for an official pre-flight weather briefing.

08:16:09 UTC

SAZS METAR
San Carlos De Bariloche Airport
San Carlos de Bariloche, Argentina
Current

16 mins ago

SAZS 230800Z 18006KT CAVOK 01/M07 Q1019
Observed
Apr-23 @ 08:00 UTC
Wind
  • 180° at 6 KTS
Visibility
10,000+ meters
Flight Rules
VFR
Cloud Levels
  • Clear skies
Temperature
C / 34°F
Dewpoint
-7°C / 19°F
Humidity
56%
Altimeter
30.09" Hg
Pressure
1018.92 hPa
Previous

1 hour ago

SAZS 230700Z 16004KT CAVOK 01/M06 Q1019
Observed
Apr-23 @ 07:00 UTC
Wind
  • 160° at 4 KTS
Visibility
10,000+ meters
Flight Rules
VFR
Cloud Levels
  • Clear skies
Temperature
C / 34°F
Dewpoint
-6°C / 21°F
Humidity
60%
Altimeter
30.09" Hg
Pressure
1018.92 hPa
Previous

2 hours ago

SAZS 230600Z 20003KT CAVOK 03/M06 Q1019
Observed
Apr-23 @ 06:00 UTC
Wind
  • 200° at 3 KTS
Visibility
10,000+ meters
Flight Rules
VFR
Cloud Levels
  • Clear skies
Temperature
C / 37°F
Dewpoint
-6°C / 21°F
Humidity
52%
Altimeter
30.09" Hg
Pressure
1018.92 hPa